Time;durP1;ratioP1;P1;durP2;ratioP2;P2;SDS_P1;SDS_P2;PMS_P1;PMS_P2;Temp;Humidity;BMP_temperature;BMP_pressure;BME280_temperature;BME280_humidity;BME280_pressure;Samples;Min_cycle;Max_cycle;Signal;HPM_P1;HPM_P2
2022/07/07 00:00:18;;;;;;;12.45;7.32;;;16.00;99.90;;;;;;5076685;28;20033;-75
2022/07/07 00:02:45;;;;;;;9.45;6.43;;;16.00;99.90;;;;;;5076197;28;20491;-75
2022/07/07 00:05:12;;;;;;;11.95;6.88;;;16.00;99.90;;;;;;5074980;28;20048;-75
2022/07/07 00:07:41;;;;;;;9.52;7.10;;;16.00;99.90;;;;;;5078567;28;20041;-75
2022/07/07 00:10:09;;;;;;;9.93;7.18;;;16.00;99.90;;;;;;5079794;28;20090;-75
2022/07/07 00:12:37;;;;;;;10.05;6.63;;;16.00;99.90;;;;;;5076814;28;20052;-74
2022/07/07 00:15:06;;;;;;;9.93;6.82;;;15.90;99.90;;;;;;5076875;28;20048;-74
2022/07/07 00:17:33;;;;;;;11.73;6.78;;;15.90;99.90;;;;;;5075660;28;20098;-75
2022/07/07 00:20:01;;;;;;;10.98;6.72;;;15.70;99.90;;;;;;5074612;28;20487;-75
2022/07/07 00:22:28;;;;;;;9.88;6.70;;;15.70;99.90;;;;;;5077467;28;20052;-75
2022/07/07 00:24:57;;;;;;;10.32;6.50;;;15.60;99.90;;;;;;5077801;28;20052;-75
2022/07/07 00:27:24;;;;;;;13.80;7.35;;;15.50;99.90;;;;;;5075944;28;20037;-74
2022/07/07 00:29:51;;;;;;;7.82;6.00;;;15.50;99.90;;;;;;5074724;28;20051;-76
2022/07/07 00:32:19;;;;;;;8.85;5.13;;;15.50;99.90;;;;;;5074516;28;20078;-75
2022/07/07 00:34:46;;;;;;;10.80;6.05;;;15.50;99.90;;;;;;5073827;28;20048;-74
2022/07/07 00:37:14;;;;;;;11.82;6.95;;;15.40;99.90;;;;;;5074245;28;20546;-74
2022/07/07 00:39:41;;;;;;;8.60;6.07;;;15.40;99.90;;;;;;5075237;28;20467;-75
2022/07/07 00:42:14;;;;;;;10.38;5.75;;;15.40;99.90;;;;;;5073403;28;20051;-74
2022/07/07 00:44:41;;;;;;;8.32;5.82;;;15.40;99.90;;;;;;5075344;28;20453;-75
2022/07/07 00:47:10;;;;;;;10.15;5.30;;;15.40;99.90;;;;;;5075722;28;20093;-75
2022/07/07 00:49:38;;;;;;;6.82;5.00;;;15.40;99.90;;;;;;5074645;28;20102;-75
2022/07/07 00:52:07;;;;;;;6.60;4.90;;;15.30;99.90;;;;;;5074685;28;20524;-74
2022/07/07 00:54:35;;;;;;;8.20;5.50;;;15.30;99.90;;;;;;5074623;28;20063;-75
2022/07/07 00:57:04;;;;;;;9.27;5.32;;;15.20;99.90;;;;;;5074580;28;20102;-74
2022/07/07 00:59:35;;;;;;;8.90;5.63;;;15.20;99.90;;;;;;5084646;28;20106;-74
2022/07/07 01:02:03;;;;;;;10.98;6.50;;;15.20;99.90;;;;;;5079074;28;20036;-74
2022/07/07 01:04:30;;;;;;;9.30;6.43;;;15.20;99.90;;;;;;5074984;28;20480;-75
2022/07/07 01:06:58;;;;;;;11.07;6.63;;;15.20;99.90;;;;;;5074952;28;20049;-75
2022/07/07 01:09:26;;;;;;;10.70;6.80;;;15.10;99.90;;;;;;5073602;28;20059;-75
2022/07/07 01:11:55;;;;;;;10.25;7.40;;;15.10;99.90;;;;;;5073730;28;20040;-74
2022/07/07 01:14:24;;;;;;;10.05;6.70;;;15.10;99.90;;;;;;5074514;28;20438;-74
2022/07/07 01:16:53;;;;;;;14.35;6.97;;;15.10;99.90;;;;;;5074778;28;20045;-75
2022/07/07 01:19:22;;;;;;;12.70;7.05;;;15.10;99.90;;;;;;5073533;28;20422;-75
2022/07/07 01:21:53;;;;;;;9.98;7.47;;;15.10;99.90;;;;;;5075069;28;20043;-74
2022/07/07 01:24:24;;;;;;;11.57;8.00;;;15.00;99.90;;;;;;5074727;28;20047;-75
2022/07/07 01:27:04;;;;;;;13.25;7.57;;;14.90;99.90;;;;;;5073213;28;20094;-75
2022/07/07 01:29:36;;;;;;;11.00;7.97;;;14.80;99.90;;;;;;5073535;28;20062;-74
2022/07/07 01:32:04;;;;;;;11.70;7.95;;;14.70;99.90;;;;;;5074552;28;20097;-75
2022/07/07 01:34:32;;;;;;;11.48;7.57;;;14.80;99.90;;;;;;5074488;28;20086;-74
2022/07/07 01:36:59;;;;;;;15.13;7.97;;;14.80;99.90;;;;;;5074807;28;20041;-75
2022/07/07 01:39:28;;;;;;;10.98;7.50;;;14.80;99.90;;;;;;5074023;28;20090;-75
2022/07/07 01:41:55;;;;;;;12.32;7.93;;;14.80;99.90;;;;;;5073513;28;20029;-75
2022/07/07 01:44:22;;;;;;;11.60;7.30;;;14.70;99.90;;;;;;5074382;28;20044;-74
2022/07/07 01:46:50;;;;;;;8.75;6.82;;;14.70;99.90;;;;;;5075598;28;20502;-75
2022/07/07 01:49:17;;;;;;;15.55;10.73;;;14.70;99.90;;;;;;5074676;28;20071;-75
2022/07/07 01:51:45;;;;;;;12.93;8.05;;;14.60;99.90;;;;;;5075056;28;20102;-74
2022/07/07 01:54:12;;;;;;;17.13;11.40;;;14.60;99.90;;;;;;5074308;28;20487;-75
2022/07/07 01:56:41;;;;;;;11.75;8.30;;;14.60;99.90;;;;;;5073442;28;20553;-75
2022/07/07 01:59:08;;;;;;;10.48;7.25;;;14.60;99.90;;;;;;5074315;28;20454;-75
2022/07/07 02:01:36;;;;;;;11.27;7.55;;;14.60;99.90;;;;;;5074382;28;20041;-75
2022/07/07 02:04:03;;;;;;;9.75;7.35;;;14.60;99.90;;;;;;5073896;28;20128;-74
2022/07/07 02:06:30;;;;;;;8.95;6.72;;;14.50;99.90;;;;;;5073799;28;20114;-74
2022/07/07 02:08:58;;;;;;;9.93;6.88;;;14.50;99.90;;;;;;5072767;28;20055;-74
2022/07/07 02:11:27;;;;;;;12.20;7.07;;;14.40;99.90;;;;;;5073206;28;20055;-75
2022/07/07 02:13:56;;;;;;;10.63;6.88;;;14.40;99.90;;;;;;5071877;28;20083;-74
2022/07/07 02:16:25;;;;;;;8.88;6.88;;;14.40;99.90;;;;;;5073696;28;20044;-75
2022/07/07 02:18:54;;;;;;;10.98;7.20;;;14.40;99.90;;;;;;5072462;28;20053;-75
2022/07/07 02:21:22;;;;;;;10.15;7.38;;;14.30;99.90;;;;;;5071755;28;20503;-74
2022/07/07 02:23:52;;;;;;;9.82;6.85;;;14.30;99.90;;;;;;5073637;28;20040;-75
2022/07/07 02:26:19;;;;;;;11.98;7.55;;;14.30;99.90;;;;;;5073527;28;20101;-74
2022/07/07 02:28:47;;;;;;;9.48;6.70;;;14.30;99.90;;;;;;5073137;28;20131;-74
2022/07/07 02:31:16;;;;;;;11.65;7.03;;;14.30;99.90;;;;;;5072476;28;20044;-74
2022/07/07 02:33:44;;;;;;;13.93;7.78;;;14.20;99.90;;;;;;5072545;28;20088;-75
2022/07/07 02:36:11;;;;;;;12.40;8.45;;;14.20;99.90;;;;;;5074111;28;20037;-74
2022/07/07 02:38:39;;;;;;;10.27;8.27;;;14.20;99.90;;;;;;5093647;28;20095;-73
2022/07/07 02:41:07;;;;;;;12.93;9.25;;;14.20;99.90;;;;;;5097526;28;20055;-73
2022/07/07 02:43:35;;;;;;;12.27;9.27;;;14.20;99.90;;;;;;5098448;28;20044;-74
2022/07/07 02:46:03;;;;;;;16.23;9.35;;;14.10;99.90;;;;;;5097080;28;20029;-73
2022/07/07 02:48:32;;;;;;;13.30;9.57;;;14.20;99.90;;;;;;5098612;28;20093;-74
2022/07/07 02:51:00;;;;;;;10.50;8.15;;;14.10;99.90;;;;;;5081584;28;20090;-75
2022/07/07 02:53:27;;;;;;;16.77;11.43;;;14.20;99.90;;;;;;5073119;28;20055;-74
2022/07/07 02:55:55;;;;;;;14.88;8.98;;;14.10;99.90;;;;;;5071984;28;20036;-74
2022/07/07 02:58:23;;;;;;;18.27;9.82;;;14.10;99.90;;;;;;5073235;28;20045;-74
2022/07/07 03:00:51;;;;;;;15.10;10.13;;;14.10;99.90;;;;;;5073521;28;20106;-74
2022/07/07 03:03:19;;;;;;;13.68;9.45;;;14.10;99.90;;;;;;5072716;28;20048;-75
2022/07/07 03:05:47;;;;;;;13.57;10.18;;;14.00;99.90;;;;;;5074320;28;20045;-75
2022/07/07 03:08:15;;;;;;;11.63;8.73;;;14.00;99.90;;;;;;5075396;28;20040;-75
2022/07/07 03:10:43;;;;;;;14.13;9.27;;;14.00;99.90;;;;;;5073886;28;20079;-74
2022/07/07 03:13:10;;;;;;;14.35;8.40;;;14.00;99.90;;;;;;5081634;28;20044;-74
2022/07/07 03:15:37;;;;;;;11.82;8.35;;;14.00;99.90;;;;;;5088131;28;20112;-75
2022/07/07 03:18:05;;;;;;;11.43;7.75;;;14.10;99.90;;;;;;5079391;28;20052;-75
2022/07/07 03:20:32;;;;;;;13.63;7.95;;;14.10;99.90;;;;;;5077031;28;20491;-74
2022/07/07 03:23:01;;;;;;;11.68;7.75;;;14.10;99.90;;;;;;5075882;28;20064;-75
2022/07/07 03:25:28;;;;;;;9.05;7.53;;;14.10;99.90;;;;;;5075531;28;20390;-74
2022/07/07 03:27:55;;;;;;;11.07;7.50;;;14.10;99.90;;;;;;5076962;28;20565;-75
2022/07/07 03:30:22;;;;;;;13.20;7.82;;;14.20;99.90;;;;;;5077633;28;20055;-75
2022/07/07 03:32:50;;;;;;;13.73;9.02;;;14.20;99.90;;;;;;5077945;28;20040;-75
2022/07/07 03:35:17;;;;;;;16.38;9.55;;;14.20;99.90;;;;;;5085253;28;20048;-75
2022/07/07 03:37:44;;;;;;;12.48;9.30;;;14.20;99.90;;;;;;5084675;28;20090;-74
2022/07/07 03:40:14;;;;;;;14.70;9.65;;;14.20;99.90;;;;;;5097504;22;20094;-76
2022/07/07 03:42:41;;;;;;;10.70;9.60;;;14.30;99.90;;;;;;5069459;28;20062;-76
2022/07/07 03:45:09;;;;;;;11.05;9.48;;;14.30;99.90;;;;;;5079941;28;20036;-77
2022/07/07 03:47:37;;;;;;;12.07;9.43;;;14.30;99.90;;;;;;5088761;28;20044;-77
2022/07/07 03:50:04;;;;;;;13.18;9.18;;;14.40;99.90;;;;;;5077816;28;20451;-77
2022/07/07 03:52:32;;;;;;;10.77;8.15;;;14.40;99.90;;;;;;5070453;28;20044;-79
2022/07/07 03:54:59;;;;;;;9.02;6.25;;;14.40;99.90;;;;;;5065007;28;20041;-78
2022/07/07 03:57:28;;;;;;;11.75;7.05;;;14.50;99.90;;;;;;5059684;28;20044;-76
2022/07/07 03:59:55;;;;;;;10.23;6.85;;;14.70;99.90;;;;;;5057643;28;20076;-78
2022/07/07 04:02:22;;;;;;;6.55;5.00;;;15.60;99.90;;;;;;5064744;28;20479;-76
2022/07/07 04:04:49;;;;;;;8.27;5.75;;;16.60;99.90;;;;;;5056594;28;20052;-76
2022/07/07 04:07:17;;;;;;;8.43;5.68;;;17.40;99.90;;;;;;5057576;28;20450;-76
2022/07/07 04:09:44;;;;;;;8.85;5.53;;;18.10;99.90;;;;;;5065006;28;20068;-77
2022/07/07 04:12:12;;;;;;;9.95;6.13;;;18.70;99.90;;;;;;5064765;28;20045;-77
2022/07/07 04:14:40;;;;;;;8.57;5.95;;;19.30;99.90;;;;;;5064182;28;20044;-77
2022/07/07 04:17:08;;;;;;;11.23;5.68;;;20.00;99.90;;;;;;5059978;28;20041;-79
2022/07/07 04:19:35;;;;;;;9.30;5.82;;;20.00;99.90;;;;;;5056894;28;20364;-77
2022/07/07 04:22:03;;;;;;;8.85;6.10;;;20.50;99.90;;;;;;5064132;28;20041;-76
2022/07/07 04:24:31;;;;;;;11.85;6.13;;;20.90;99.90;;;;;;5064593;28;20036;-77
2022/07/07 04:26:58;;;;;;;10.27;5.50;;;22.00;99.90;;;;;;5071416;28;20482;-78
2022/07/07 04:29:25;;;;;;;13.35;6.53;;;22.40;99.90;;;;;;5065193;28;20102;-76
2022/07/07 04:31:54;;;;;;;11.90;6.85;;;22.40;99.90;;;;;;5065155;28;20450;-77
2022/07/07 04:34:22;;;;;;;9.38;6.50;;;22.30;99.90;;;;;;5055540;28;20056;-77
2022/07/07 04:36:49;;;;;;;10.05;7.07;;;22.70;99.90;;;;;;5054776;28;20053;-77
2022/07/07 04:39:17;;;;;;;13.63;7.88;;;23.10;99.90;;;;;;5055473;28;20052;-78
2022/07/07 04:41:44;;;;;;;12.25;7.93;;;23.30;99.90;;;;;;5060271;28;20491;-76
2022/07/07 04:44:11;;;;;;;15.38;9.23;;;23.80;99.90;;;;;;5058162;28;20118;-76
2022/07/07 04:46:39;;;;;;;11.95;8.77;;;23.30;99.90;;;;;;5066440;28;20049;-77
2022/07/07 04:49:07;;;;;;;14.20;8.77;;;23.70;99.90;;;;;;5067626;28;20056;-77
2022/07/07 04:51:35;;;;;;;11.77;8.75;;;24.60;99.90;;;;;;5076316;28;20074;-77
2022/07/07 04:54:02;;;;;;;13.05;8.43;;;25.00;99.90;;;;;;5076416;28;20044;-77
2022/07/07 04:56:29;;;;;;;10.80;7.43;;;25.20;99.90;;;;;;5053653;28;20049;-78
2022/07/07 04:58:56;;;;;;;12.10;8.40;;;25.50;99.90;;;;;;5058093;28;20549;-78
2022/07/07 05:01:24;;;;;;;14.15;7.60;;;25.70;99.90;;;;;;5066875;28;20056;-77
2022/07/07 05:03:51;;;;;;;12.48;8.18;;;26.00;99.90;;;;;;5067729;28;20044;-77
2022/07/07 05:06:20;;;;;;;13.32;8.27;;;26.40;99.90;;;;;;5076562;28;20102;-78
2022/07/07 05:08:47;;;;;;;10.05;7.10;;;26.00;99.90;;;;;;5055527;28;20041;-76
2022/07/07 05:11:15;;;;;;;11.68;7.30;;;26.80;99.90;;;;;;5057254;28;20102;-79
2022/07/07 05:13:42;;;;;;;12.07;8.32;;;27.60;99.90;;;;;;5056654;28;20044;-79
2022/07/07 05:16:09;;;;;;;10.15;7.68;;;27.70;99.90;;;;;;5066131;28;20067;-80
2022/07/07 05:18:36;;;;;;;11.93;7.40;;;28.10;99.20;;;;;;5072959;28;20037;-78
2022/07/07 05:21:04;;;;;;;13.52;8.63;;;28.30;98.40;;;;;;5063705;28;20041;-78
2022/07/07 05:23:32;;;;;;;11.00;9.60;;;28.70;96.70;;;;;;5062648;28;20056;-78
2022/07/07 05:26:00;;;;;;;12.02;7.55;;;29.00;96.10;;;;;;5057866;28;20068;-78
2022/07/07 05:28:27;;;;;;;12.98;8.52;;;29.20;94.10;;;;;;5056886;28;20096;-78
2022/07/07 05:30:55;;;;;;;13.68;9.30;;;29.60;92.90;;;;;;5056496;28;20041;-78
2022/07/07 05:33:22;;;;;;;13.30;8.07;;;29.90;91.90;;;;;;5056364;28;20040;-79
2022/07/07 05:35:49;;;;;;;10.15;8.02;;;30.00;91.20;;;;;;5055303;28;20049;-77
2022/07/07 05:38:17;;;;;;;11.85;8.68;;;29.90;90.90;;;;;;5056056;28;20044;-79
2022/07/07 05:40:46;;;;;;;12.77;9.82;;;30.20;90.00;;;;;;5057568;28;20091;-78
2022/07/07 05:43:13;;;;;;;13.10;8.07;;;30.20;89.70;;;;;;5055017;28;20129;-79
2022/07/07 05:45:40;;;;;;;20.00;7.72;;;30.30;87.70;;;;;;5055858;28;20048;-77
2022/07/07 05:48:07;;;;;;;10.32;7.47;;;29.80;88.30;;;;;;5055398;28;20132;-79
2022/07/07 05:50:35;;;;;;;12.95;7.78;;;29.80;87.70;;;;;;5057782;28;20052;-79
2022/07/07 05:53:02;;;;;;;14.52;9.93;;;29.40;88.20;;;;;;5056113;28;20041;-78
2022/07/07 05:55:29;;;;;;;11.23;6.68;;;29.00;89.10;;;;;;5055451;28;20045;-77
2022/07/07 05:57:59;;;;;;;12.32;7.13;;;28.80;88.80;;;;;;5053794;28;20446;-78
2022/07/07 06:00:27;;;;;;;12.80;7.25;;;28.50;89.20;;;;;;5053715;28;20099;-77
2022/07/07 06:02:54;;;;;;;14.43;7.93;;;28.10;89.70;;;;;;5054600;28;20040;-80
2022/07/07 06:05:22;;;;;;;13.10;7.32;;;27.70;90.60;;;;;;5055561;28;20045;-80
2022/07/07 06:07:50;;;;;;;16.15;7.80;;;27.30;91.20;;;;;;5069676;28;20040;-78
2022/07/07 06:10:19;;;;;;;12.85;7.78;;;27.10;91.50;;;;;;5055492;28;20045;-79
2022/07/07 06:12:48;;;;;;;14.23;8.32;;;26.90;91.90;;;;;;5053770;28;20041;-79
2022/07/07 06:15:20;;;;;;;13.98;7.88;;;26.80;91.90;;;;;;5066452;28;20075;-79
2022/07/07 06:17:48;;;;;;;17.08;8.70;;;26.80;92.20;;;;;;5058935;28;20048;-79
2022/07/07 06:20:15;;;;;;;14.15;7.95;;;26.70;92.10;;;;;;5061504;28;20048;-79
2022/07/07 06:22:43;;;;;;;11.15;7.53;;;26.20;92.30;;;;;;5061410;28;20071;-79
2022/07/07 06:25:10;;;;;;;15.77;8.10;;;25.70;92.90;;;;;;5053986;28;20051;-79
2022/07/07 06:27:39;;;;;;;17.70;8.05;;;25.80;93.60;;;;;;5054680;28;20492;-80
2022/07/07 06:30:08;;;;;;;18.42;9.90;;;26.20;93.60;;;;;;5054978;28;20041;-79
2022/07/07 06:32:37;;;;;;;15.95;8.10;;;26.60;93.20;;;;;;5047659;28;20040;-79
2022/07/07 06:35:05;;;;;;;15.70;7.50;;;26.60;93.20;;;;;;5036983;28;20080;-78
2022/07/07 06:37:32;;;;;;;16.92;7.93;;;26.70;92.80;;;;;;5055774;28;20171;-80
2022/07/07 06:40:00;;;;;;;18.10;9.10;;;26.70;92.70;;;;;;5054246;28;20169;-80
2022/07/07 06:42:28;;;;;;;11.90;8.05;;;26.90;92.80;;;;;;5054366;28;20422;-80
2022/07/07 06:45:03;;;;;;;22.23;12.43;;;26.90;91.90;;;;;;5053853;28;20048;-80
2022/07/07 06:47:31;;;;;;;13.18;10.27;;;26.90;92.10;;;;;;5043186;28;20443;-80
2022/07/07 06:49:59;;;;;;;19.15;7.55;;;26.70;92.20;;;;;;5035849;28;20045;-80
2022/07/07 06:52:27;;;;;;;11.27;7.80;;;26.60;92.50;;;;;;5061115;28;20059;-78
2022/07/07 06:54:54;;;;;;;15.20;10.00;;;26.50;92.70;;;;;;5046018;28;20137;-79
2022/07/07 06:57:21;;;;;;;15.18;7.10;;;26.20;93.30;;;;;;5050959;28;20052;-80
2022/07/07 06:59:49;;;;;;;14.02;7.47;;;26.00;93.40;;;;;;5056074;28;20077;-78
2022/07/07 07:02:16;;;;;;;17.08;7.85;;;26.10;93.50;;;;;;5063532;28;20037;-78
2022/07/07 07:04:43;;;;;;;15.50;7.63;;;26.30;93.70;;;;;;5071401;28;20048;-79
2022/07/07 07:07:12;;;;;;;15.50;7.53;;;26.20;93.70;;;;;;5076203;28;20106;-79
2022/07/07 07:09:39;;;;;;;12.07;6.05;;;26.40;93.80;;;;;;5057752;28;20042;-82
2022/07/07 07:12:08;;;;;;;11.13;6.60;;;26.70;93.40;;;;;;5054705;28;20052;-81
2022/07/07 07:14:35;;;;;;;13.88;8.52;;;26.80;92.00;;;;;;5055168;28;20443;-80
2022/07/07 07:17:03;;;;;;;12.05;5.82;;;26.70;92.70;;;;;;5057775;28;20053;-80
2022/07/07 07:19:30;;;;;;;12.05;7.75;;;27.00;92.70;;;;;;5055379;28;20056;-80
2022/07/07 07:21:57;;;;;;;16.90;10.05;;;27.20;92.60;;;;;;5057702;28;20444;-80
2022/07/07 07:24:26;;;;;;;11.48;6.28;;;26.90;91.20;;;;;;5056959;28;20498;-80
2022/07/07 07:26:53;;;;;;;8.48;4.95;;;26.90;91.10;;;;;;5056832;28;20140;-81
2022/07/07 07:29:21;;;;;;;10.70;6.10;;;27.10;90.30;;;;;;5057742;28;20045;-81
2022/07/07 07:31:48;;;;;;;15.90;10.40;;;27.30;89.50;;;;;;5058132;28;20373;-82
2022/07/07 07:34:16;;;;;;;10.38;5.95;;;27.50;88.00;;;;;;5058312;28;20071;-83
2022/07/07 07:36:43;;;;;;;9.68;5.45;;;27.60;85.00;;;;;;5061113;28;20045;-83
2022/07/07 07:39:11;;;;;;;11.27;4.38;;;27.60;86.90;;;;;;5059912;28;20115;-81
2022/07/07 07:41:40;;;;;;;6.53;4.05;;;27.20;84.80;;;;;;5062447;28;20075;-80
2022/07/07 07:44:07;;;;;;;15.77;6.40;;;26.90;84.30;;;;;;5072756;28;20150;-82
2022/07/07 07:46:35;;;;;;;16.52;6.45;;;26.90;86.40;;;;;;5074342;28;20116;-80
2022/07/07 07:49:05;;;;;;;11.80;4.30;;;27.10;86.50;;;;;;5071661;28;20053;-81
2022/07/07 07:51:32;;;;;;;10.27;5.13;;;27.30;83.50;;;;;;5066915;28;20060;-80
2022/07/07 07:54:00;;;;;;;12.63;6.90;;;27.60;83.60;;;;;;5068416;28;20051;-81
2022/07/07 07:56:28;;;;;;;12.73;7.95;;;27.60;82.20;;;;;;5056467;28;20535;-81
2022/07/07 07:58:56;;;;;;;11.88;8.02;;;27.60;80.00;;;;;;5053341;28;20385;-80
2022/07/07 08:01:24;;;;;;;12.43;5.32;;;27.70;79.20;;;;;;5054985;28;20462;-80
2022/07/07 08:03:51;;;;;;;12.57;6.55;;;27.60;78.20;;;;;;5057617;28;20041;-80
2022/07/07 08:06:18;;;;;;;7.50;4.10;;;27.70;78.90;;;;;;5055965;28;20061;-78
2022/07/07 08:08:46;;;;;;;6.38;3.08;;;27.90;77.40;;;;;;5059117;28;20071;-79
2022/07/07 08:11:13;;;;;;;5.88;2.53;;;27.90;76.40;;;;;;5057654;28;20044;-80
2022/07/07 08:13:40;;;;;;;10.25;3.13;;;27.90;75.80;;;;;;5057453;28;20071;-80
2022/07/07 08:16:09;;;;;;;9.07;4.30;;;27.80;76.50;;;;;;5058161;28;20103;-82
2022/07/07 08:18:36;;;;;;;14.27;5.32;;;27.90;77.70;;;;;;5057519;28;20534;-80
2022/07/07 08:21:04;;;;;;;5.57;3.28;;;27.90;78.90;;;;;;5055917;28;20051;-80
2022/07/07 08:23:31;;;;;;;10.32;4.47;;;27.90;77.60;;;;;;5056200;28;20045;-81
2022/07/07 08:25:59;;;;;;;9.50;4.68;;;27.40;79.20;;;;;;5059695;28;20500;-81
2022/07/07 08:28:26;;;;;;;13.68;6.55;;;27.60;80.70;;;;;;5057911;28;20525;-80
2022/07/07 08:30:54;;;;;;;9.57;5.95;;;27.60;78.20;;;;;;5059965;28;20044;-79
2022/07/07 08:33:23;;;;;;;14.85;6.22;;;27.40;79.50;;;;;;5060030;28;20060;-79
2022/07/07 08:35:50;;;;;;;11.35;5.85;;;27.50;80.30;;;;;;5060876;28;20045;-80
2022/07/07 08:38:17;;;;;;;9.80;4.57;;;27.50;79.60;;;;;;5057468;28;20053;-82
2022/07/07 08:40:45;;;;;;;7.78;4.75;;;27.50;79.70;;;;;;5058851;28;20099;-81
2022/07/07 08:43:14;;;;;;;12.45;5.78;;;27.60;79.30;;;;;;5058706;28;20048;-80
2022/07/07 08:45:41;;;;;;;9.07;4.78;;;27.70;79.30;;;;;;5058933;28;20137;-80
2022/07/07 08:48:08;;;;;;;8.65;5.18;;;27.60;79.30;;;;;;5060632;28;20041;-80
2022/07/07 08:50:40;;;;;;;6.60;3.63;;;27.70;79.40;;;;;;5061471;28;20041;-80
2022/07/07 08:53:09;;;;;;;9.73;3.83;;;27.50;77.40;;;;;;5058765;28;20056;-80
2022/07/07 08:55:38;;;;;;;6.85;3.50;;;27.60;78.70;;;;;;5058724;28;20049;-80
2022/07/07 08:58:06;;;;;;;10.82;7.10;;;27.80;77.30;;;;;;5057366;28;20045;-80
2022/07/07 09:00:33;;;;;;;8.30;4.22;;;27.60;77.10;;;;;;5058653;28;20053;-80
2022/07/07 09:03:03;;;;;;;8.57;5.63;;;27.60;77.90;;;;;;5058010;28;20487;-82
2022/07/07 09:05:37;;;;;;;12.65;9.15;;;27.90;78.70;;;;;;5060101;28;20066;-82
2022/07/07 09:08:17;;;;;;;10.18;6.35;;;28.10;76.80;;;;;;5061808;28;20061;-80
2022/07/07 09:10:45;;;;;;;18.60;15.93;;;27.80;76.20;;;;;;5062730;28;20053;-79
2022/07/07 09:13:25;;;;;;;18.25;10.85;;;27.60;76.00;;;;;;5063120;28;20063;-82
2022/07/07 09:15:54;;;;;;;12.68;9.95;;;27.50;76.00;;;;;;5078357;28;20040;-77
2022/07/07 09:18:36;;;;;;;9.35;5.70;;;27.80;75.80;;;;;;5078322;28;20024;-76
2022/07/07 09:21:05;;;;;;;7.60;4.63;;;27.80;73.40;;;;;;5075703;28;20040;-82
2022/07/07 09:23:34;;;;;;;7.85;4.50;;;27.50;74.50;;;;;;5073657;28;20084;-80
2022/07/07 09:26:02;;;;;;;8.02;4.05;;;27.50;76.00;;;;;;5060052;28;20041;-78
2022/07/07 09:28:30;;;;;;;8.73;4.30;;;27.30;76.10;;;;;;5057058;28;20483;-81
2022/07/07 09:30:59;;;;;;;6.20;4.45;;;27.30;76.90;;;;;;5056120;28;20484;-80
2022/07/07 09:33:28;;;;;;;13.45;8.65;;;27.40;76.60;;;;;;5051860;28;20062;-80
2022/07/07 09:41:13;;;;;;;11.07;4.90;;;27.80;75.20;;;;;;5038529;28;20046;-73
2022/07/07 09:43:47;;;;;;;9.23;5.00;;;27.90;75.20;;;;;;5044611;28;20040;-72
2022/07/07 09:46:17;;;;;;;10.43;5.43;;;27.90;75.20;;;;;;5043507;28;20052;-73
2022/07/07 09:48:47;;;;;;;14.25;7.45;;;28.20;75.50;;;;;;5018775;28;20046;-72
2022/07/07 09:51:17;;;;;;;12.73;9.07;;;28.50;75.00;;;;;;5034129;28;20488;-74
2022/07/07 09:54:12;;;;;;;9.68;4.78;;;28.50;74.60;;;;;;5033929;28;20041;-74
2022/07/07 09:56:42;;;;;;;10.70;6.35;;;28.30;74.10;;;;;;5001611;28;20057;-73
2022/07/07 09:59:11;;;;;;;10.75;6.07;;;28.20;73.90;;;;;;5036701;28;20099;-74
2022/07/07 10:01:41;;;;;;;6.45;3.30;;;28.10;74.30;;;;;;5053923;28;20503;-73
2022/07/07 10:04:10;;;;;;;7.85;3.67;;;28.20;69.60;;;;;;5027560;28;20096;-74
2022/07/07 10:06:39;;;;;;;7.70;2.38;;;28.40;68.50;;;;;;5033978;28;20049;-73
2022/07/07 10:09:09;;;;;;;7.13;3.25;;;28.30;64.40;;;;;;5033993;28;20128;-73
2022/07/07 10:11:38;;;;;;;4.03;2.67;;;28.10;65.20;;;;;;5033189;28;20095;-73
2022/07/07 10:14:13;;;;;;;6.05;2.15;;;28.30;64.90;;;;;;5032884;28;20041;-73
2022/07/07 10:16:42;;;;;;;3.67;2.20;;;28.50;65.00;;;;;;5033714;28;20173;-73
2022/07/07 10:19:11;;;;;;;5.57;2.30;;;28.70;63.30;;;;;;5038619;28;20403;-73
2022/07/07 10:21:41;;;;;;;3.63;2.22;;;28.80;60.40;;;;;;5053092;28;20112;-73
2022/07/07 10:24:09;;;;;;;4.57;2.03;;;29.00;56.70;;;;;;5051577;28;20037;-74
2022/07/07 10:26:39;;;;;;;3.78;2.53;;;28.90;56.30;;;;;;5035774;28;20128;-73
2022/07/07 10:29:10;;;;;;;6.43;2.47;;;29.00;55.40;;;;;;5015210;28;20045;-73
2022/07/07 10:31:38;;;;;;;5.65;1.90;;;29.10;55.10;;;;;;5032849;28;20562;-73
2022/07/07 10:34:08;;;;;;;5.20;2.30;;;29.10;54.90;;;;;;5031653;28;20092;-73
2022/07/07 10:37:02;;;;;;;5.15;2.28;;;29.20;55.30;;;;;;5033215;28;20049;-74
2022/07/07 10:39:34;;;;;;;3.05;1.52;;;29.40;53.70;;;;;;5031631;28;20053;-74
2022/07/07 10:42:06;;;;;;;5.03;1.60;;;29.10;53.90;;;;;;5032936;28;20580;-74
2022/07/07 10:44:38;;;;;;;2.58;1.15;;;28.90;52.50;;;;;;5032705;28;20038;-74
2022/07/07 10:47:25;;;;;;;2.55;1.00;;;28.70;52.90;;;;;;5033176;28;20081;-74
2022/07/07 10:49:55;;;;;;;2.17;1.20;;;28.40;53.00;;;;;;5032933;28;20049;-73
2022/07/07 10:52:23;;;;;;;4.35;1.40;;;28.00;53.20;;;;;;5032685;28;20045;-74
2022/07/07 10:54:52;;;;;;;5.82;1.35;;;27.70;53.90;;;;;;5032797;28;20038;-74
2022/07/07 10:57:21;;;;;;;3.42;1.48;;;28.00;53.90;;;;;;5032324;28;20100;-73
2022/07/07 11:00:10;;;;;;;5.80;1.80;;;28.20;53.50;;;;;;5036995;28;20045;-73
2022/07/07 11:02:39;;;;;;;6.32;3.03;;;28.40;53.80;;;;;;5032764;28;20050;-74
2022/07/07 11:05:25;;;;;;;3.78;2.15;;;28.60;52.30;;;;;;5033542;28;20404;-72
2022/07/07 11:08:10;;;;;;;5.97;1.90;;;28.70;52.80;;;;;;5031270;28;20057;-72
2022/07/07 11:10:56;;;;;;;5.05;1.30;;;28.80;51.40;;;;;;5033676;28;20041;-69
2022/07/07 11:13:35;;;;;;;2.13;1.50;;;29.10;51.10;;;;;;5032968;28;20056;-78
2022/07/07 11:16:16;;;;;;;3.88;2.47;;;29.20;50.40;;;;;;5036615;28;20050;-81
2022/07/07 11:18:47;;;;;;;3.30;1.60;;;29.10;50.90;;;;;;5035490;28;20045;-76
2022/07/07 11:21:15;;;;;;;5.53;2.58;;;29.00;51.10;;;;;;5034513;28;20052;-70
2022/07/07 11:23:52;;;;;;;3.03;2.22;;;29.00;51.10;;;;;;5032769;28;20512;-69
2022/07/07 11:26:23;;;;;;;3.38;1.70;;;29.00;51.80;;;;;;5033159;28;20084;-69
2022/07/07 11:28:51;;;;;;;3.90;2.70;;;28.90;51.30;;;;;;5021466;28;20404;-69
2022/07/07 11:31:20;;;;;;;2.58;1.17;;;28.90;51.70;;;;;;5032297;28;20120;-68
2022/07/07 11:33:52;;;;;;;4.35;1.10;;;28.80;51.60;;;;;;5031567;28;20477;-68
2022/07/07 11:36:21;;;;;;;2.95;1.48;;;28.20;51.90;;;;;;5037915;28;20064;-68
2022/07/07 11:38:51;;;;;;;6.63;1.55;;;28.00;52.00;;;;;;5044350;28;20099;-68
2022/07/07 11:41:19;;;;;;;4.97;1.63;;;28.00;53.10;;;;;;5035618;28;20511;-68
2022/07/07 11:43:55;;;;;;;6.03;1.70;;;28.10;53.40;;;;;;5035000;28;20038;-69
2022/07/07 11:46:26;;;;;;;2.30;1.20;;;28.10;53.20;;;;;;5036305;28;20045;-69
2022/07/07 11:48:53;;;;;;;3.05;1.80;;;28.00;52.40;;;;;;5035618;28;20053;-69
2022/07/07 11:51:28;;;;;;;4.18;1.80;;;28.20;54.10;;;;;;5016345;28;20069;-69
2022/07/07 11:53:58;;;;;;;3.40;1.35;;;28.50;53.70;;;;;;5023309;28;20381;-69
2022/07/07 11:56:29;;;;;;;6.03;4.85;;;28.60;52.90;;;;;;5036017;28;20068;-69
2022/07/07 11:58:59;;;;;;;4.05;2.45;;;28.80;53.00;;;;;;5045306;28;20048;-70
2022/07/07 12:01:31;;;;;;;6.53;4.38;;;29.00;53.00;;;;;;5055946;28;20488;-70
2022/07/07 12:03:59;;;;;;;4.85;3.65;;;29.10;52.00;;;;;;5055383;28;20037;-70
2022/07/07 12:06:27;;;;;;;4.03;2.00;;;29.30;52.70;;;;;;5024423;28;20049;-70
2022/07/07 12:08:56;;;;;;;3.40;2.15;;;29.40;52.60;;;;;;5015622;28;20404;-69
2022/07/07 12:11:23;;;;;;;3.58;2.10;;;29.30;53.00;;;;;;5026177;28;20061;-69
2022/07/07 12:13:53;;;;;;;6.32;4.63;;;29.30;54.30;;;;;;5034637;28;20033;-69
2022/07/07 12:16:21;;;;;;;4.60;1.95;;;29.40;55.00;;;;;;5035708;28;20073;-69
2022/07/07 12:18:50;;;;;;;3.05;1.60;;;29.50;54.30;;;;;;5037442;28;20030;-69
2022/07/07 12:21:23;;;;;;;5.00;1.92;;;29.50;54.50;;;;;;5055674;28;20171;-69
2022/07/07 12:23:53;;;;;;;4.35;1.70;;;29.40;54.40;;;;;;5056062;28;20037;-69
2022/07/07 12:26:25;;;;;;;3.70;2.42;;;29.50;54.50;;;;;;5041174;28;20037;-69
2022/07/07 12:28:59;;;;;;;3.85;1.70;;;29.70;54.10;;;;;;5034980;28;20083;-69
2022/07/07 12:31:26;;;;;;;3.97;2.30;;;29.40;54.20;;;;;;5035370;28;20125;-69
2022/07/07 12:33:55;;;;;;;3.75;1.60;;;29.60;55.00;;;;;;5034780;28;20037;-69
2022/07/07 12:36:24;;;;;;;3.53;1.70;;;29.20;54.10;;;;;;5035103;28;20045;-69
2022/07/07 12:38:55;;;;;;;2.92;1.60;;;28.80;55.20;;;;;;5033866;28;20045;-69
2022/07/07 12:41:24;;;;;;;2.47;1.50;;;28.30;56.70;;;;;;5033794;28;20515;-70
2022/07/07 12:43:52;;;;;;;3.53;1.52;;;28.40;56.80;;;;;;5035280;28;20045;-70
2022/07/07 12:46:19;;;;;;;2.45;1.70;;;28.40;56.70;;;;;;5040299;28;20072;-70
2022/07/07 12:48:50;;;;;;;3.10;1.52;;;28.40;57.40;;;;;;5040021;28;20045;-70
2022/07/07 12:51:24;;;;;;;4.57;3.22;;;28.30;57.00;;;;;;5035029;28;20034;-70
2022/07/07 12:53:52;;;;;;;7.45;3.90;;;28.10;57.50;;;;;;5033790;28;20064;-71